logo
App data

Son of Nor

The World is Your Weapon in Son of Nor, a third-person action-adventure! Alter the environment with your terraforming abilities, use telekinetic powers to bend the dynamic surroundings to your will and cast powerful elemental spells that can be combined to wreak havoc on your enemies!
Store | Hub | SteamDB | Site
Developer: stillalive studios Publisher: Viva Media
Genre: Action, Adventure, Indie
Languages: English, French, Italian, German, Spanish - Spain, Russian
Tags: PvP (59), Action (43), Magic (41), Adventure (40), Indie (40), Split Screen (37), Multiplayer (34), Co-op (33), Puzzle (30), Action-Adventure (26), Crowdfunded (25), Local Co-Op (24), Third Person (22), Fantasy (21), Kickstarter (21), Singleplayer (19), Physics (18), Local Multiplayer (17), Destruction (16), Character Action Game (14)
Category: Single-player, Multi-player, Co-op, Shared/Split Screen, Cross-Platform Multiplayer, Steam Achievements, Steam Trading Cards, Captions available, Partial Controller Support, Stats, Remote Play Together
Release date: Apr 27, 2015 (previously in Early Access)
Price: $19.99
Old userscore: 62% Metascore: 54%
Owners: 20,000 .. 50,000
Followers: 5,181
Peak concurrent players yesterday: 1

Steam Spy is still in beta, so expect major bugs.

Owners data:

Access restricted.

This feature is only available to users with special access rights. Sorry.

If you want to proceed, you need to register or log in first and then back Steam Spy on Patreon. Look for Indie or Pro pledge.

Don't forget to use the same email as on Steam Spy!

If you've recently backed Steam Spy on Patreon, please note, that it might take around 15 minutes for your access rights to sync. In most cases you'll need to re-login on Steam Spy too.

Audience in 2 weeks:

Access restricted.

This feature is only available to users with special access rights. Sorry.

If you want to proceed, you need to register or log in first and then back Steam Spy on Patreon. Look for Indie or Pro pledge.

Don't forget to use the same email as on Steam Spy!

If you've recently backed Steam Spy on Patreon, please note, that it might take around 15 minutes for your access rights to sync. In most cases you'll need to re-login on Steam Spy too.

Peak daily concurrent players:

CCU data courtesy of SteamDB. Used with permission.

Hourly concurrent players:

Daily Twitch stats:

Hourly Twitch stats:

Followers over time

Access restricted.

This feature is only available to users with special access rights. Sorry.

If you want to proceed, you need to register or log in first and then back Steam Spy on Patreon. Look for Indie or Pro pledge.

Don't forget to use the same email as on Steam Spy!

If you've recently backed Steam Spy on Patreon, please note, that it might take around 15 minutes for your access rights to sync. In most cases you'll need to re-login on Steam Spy too.

Views for top 50 videos on YouTube for this game:

Games similar to this one:

# Game Release date
Price
Score rank
(Userscore / Metascore)
Owners
Players
Playtime (Median)
1 The Fruit of Grisaia May 29, 2015 $39.99N/A (N/A)20,000 .. 50,0000%00:00 (00:00)
2 FINAL FANTASY XIII-2 Dec 11, 2014 $19.99N/A (N/A)200,000 .. 500,0000%00:00 (00:00)
3 Coma: Mortuary May 12, 2014 $5.99N/A (N/A)100,000 .. 200,0000%00:00 (00:00)
4 White Noise Online May 22, 2014 $4.99N/A (N/A)100,000 .. 200,0000%00:00 (00:00)
5 Putt-Putt: Pep's Birthday Surprise Aug 15, 2003 $6.99N/A (N/A)20,000 .. 50,0000%00:00 (00:00)
6 The House Jun 19, 2014 $4.99N/A (N/A)0 .. 20,0000%00:00 (00:00)
7 Doorways: The Underworld Sep 17, 2014 $4.99N/A (N/A)50,000 .. 100,0000%00:00 (00:00)
8 Sproggiwood Oct 24, 2014 $14.99N/A (N/A)50,000 .. 100,0000%00:00 (00:00)
9 Disney Winnie the Pooh Apr 21, 2011 $5.99N/A (N/A)20,000 .. 50,0000%00:00 (00:00)
10 Five Nights at Freddy's Aug 18, 2014 $4.99N/A (N/A/78%)1,000,000 .. 2,000,0001.32%00:01 (00:00)
11 Silence of the Sleep Oct 1, 2014 $4.99N/A (N/A/66%)50,000 .. 100,0000%00:00 (00:00)
12 LEGO Worlds Mar 7, 2017 $29.99N/A (N/A)500,000 .. 1,000,0002.44%01:11 (00:23)
13 Sentinels of the Multiverse Dec 22, 2014 $9.99N/A (N/A)100,000 .. 200,0000%00:00 (00:00)
14 Hatred Jun 1, 2015 $5.99N/A (N/A/43%)200,000 .. 500,0000%00:00 (00:00)
15 Phantasmal: Survival Horror Roguelike Apr 14, 2016 FreeN/A (N/A)20,000 .. 50,0000%00:00 (00:00)
16 Pineview Drive Jul 31, 2014 $19.99N/A (N/A/58%)20,000 .. 50,0000%00:00 (00:00)
17 FINAL FANTASY X/X-2 HD Remaster May 12, 2016 $29.99N/A (N/A)500,000 .. 1,000,0000%00:00 (00:00)
18 Clown House (Palyaço Evi) Jul 14, 2015 FreeN/A (N/A)200,000 .. 500,0000%00:00 (00:00)
19 Layers of Fear Feb 15, 2016 $19.99N/A (N/A/72%)2,000,000 .. 5,000,0000%00:00 (00:00)
20 SC2VN - The eSports Visual Novel Sep 7, 2015 FreeN/A (N/A)100,000 .. 200,0000%00:00 (00:00)
21 Last Days of Spring Visual Novel Oct 7, 2015 $2.99N/A (N/A)20,000 .. 50,0000%00:00 (00:00)
22 Block'hood May 10, 2017 $14.99N/A (N/A/75%)50,000 .. 100,0000%00:00 (00:00)
23 A Wild Catgirl Appears! Jan 5, 2016 $2.99N/A (N/A)50,000 .. 100,0000%00:00 (00:00)
24 Stay Close Oct 14, 2016 $8.99N/A (N/A)100,000 .. 200,0000%00:00 (00:00)
25 Deceit Mar 3, 2017 FreeN/A (N/A)5,000,000 .. 10,000,0000.47%07:15 (07:06)
26 ARAYA Nov 24, 2016 $14.99N/A (N/A)50,000 .. 100,0000%00:00 (00:00)
27 Yu-Gi-Oh! Legacy of the Duelist Dec 7, 2016 $19.99N/A (N/A)200,000 .. 500,0005.56%05:57 (01:59)
28 Entangle Feb 17, 2017 $5.99N/A (N/A)0 .. 20,0000%00:00 (00:00)
29 Catan Universe Apr 25, 2017 FreeN/A (N/A)1,000,000 .. 2,000,0000%00:00 (00:00)
30 Dysfunctional Systems: Learning to Manage Chaos Apr 4, 2013 $4.99N/A (N/A)50,000 .. 100,0000%00:00 (00:00)
31 Warhammer 40,000: Dawn of War - Soulstorm Mar 5, 2008 $12.99N/A (N/A)1,000,000 .. 2,000,0002.78%03:03 (01:11)
32 Victoria II Aug 30, 2010 $19.99N/A (N/A/75%)500,000 .. 1,000,0002.13%00:01 (00:00)
33 Gundemonium Recollection Sep 27, 2011 N/AN/A (N/A)20,000 .. 50,0000%00:00 (00:00)
34 Guardians of Middle-earth Aug 29, 2013 N/AN/A (N/A/56%)200,000 .. 500,0000%00:00 (00:00)
35 Demigod Dec 14, 2011 $9.99N/A (N/A/76%)50,000 .. 100,0000%00:00 (00:00)
36 SATAZIUS Dec 16, 2011 $2.99N/A (N/A)50,000 .. 100,0000%00:00 (00:00)
37 eXceed - Gun Bullet Children Aug 2, 2012 $2.99N/A (N/A)50,000 .. 100,0000%00:00 (00:00)
38 eXceed 2nd - Vampire REX Aug 2, 2012 $5.99N/A (N/A)50,000 .. 100,0000%00:00 (00:00)
39 Hack, Slash, Loot Apr 5, 2012 $6.99N/A (N/A)50,000 .. 100,0000%00:00 (00:00)
40 Magic 2014 — Duels of the Planeswalkers Jun 26, 2013 N/AN/A (N/A)500,000 .. 1,000,0000%00:00 (00:00)
41 Anna - Extended Edition Apr 12, 2013 $9.99N/A (N/A/75%)100,000 .. 200,0000%00:00 (00:00)
42 Ys I & II Chronicles+ Feb 14, 2013 $14.99N/A (N/A)100,000 .. 200,0000%00:00 (00:00)
43 Legend of Dungeon Sep 13, 2013 $9.99N/A (N/A/62%)200,000 .. 500,0000%00:00 (00:00)
44 Condemned: Criminal Origins Oct 29, 2012 $14.95N/A (N/A/78%)200,000 .. 500,0000%00:00 (00:00)
45 Damned Oct 6, 2014 $19.99N/A (N/A)200,000 .. 500,0000%00:00 (00:00)
46 Corpse Party Apr 25, 2016 $14.99N/A (N/A/71%)0 .. 20,0000%00:00 (00:00)
47 Claire Jul 7, 2014 $9.99N/A (N/A)50,000 .. 100,0000%00:00 (00:00)
48 The Cat Lady Dec 4, 2013 $9.99N/A (N/A/81%)200,000 .. 500,0000%00:00 (00:00)
49 Neverending Nightmares Sep 26, 2014 $14.99N/A (N/A/68%)100,000 .. 200,0000%00:00 (00:00)
50 Obscure Apr 6, 2005 $6.99N/A (N/A/63%)100,000 .. 200,0000%00:00 (00:00)
51 Magic 2015 - Duels of the Planeswalkers Jul 16, 2014 N/AN/A (N/A/60%)200,000 .. 500,0000%00:00 (00:00)
52 Elder Sign: Omens Oct 31, 2011 $5.99N/A (N/A)20,000 .. 50,0000%00:00 (00:00)
53 The LEGO Movie - Videogame Feb 7, 2014 $19.99N/A (N/A)200,000 .. 500,0000%00:00 (00:00)
54 Year Walk Mar 6, 2014 $5.99N/A (N/A/87%)100,000 .. 200,0000%00:00 (00:00)
55 Danmaku Unlimited 2 Mar 18, 2014 $4.99N/A (N/A)20,000 .. 50,0000%00:00 (00:00)
56 LEGO The Hobbit Apr 8, 2014 $19.99N/A (N/A)500,000 .. 1,000,0000%00:00 (00:00)
57 Metro: Last Light Redux Aug 25, 2014 $19.99N/A (N/A/76%)2,000,000 .. 5,000,0000%00:00 (00:00)

Tags over time:

Access restricted.

This feature is only available to users with special access rights. Sorry.

If you want to proceed, you need to register or log in first and then back Steam Spy on Patreon. Look for Indie or Pro pledge.

Don't forget to use the same email as on Steam Spy!

If you've recently backed Steam Spy on Patreon, please note, that it might take around 15 minutes for your access rights to sync. In most cases you'll need to re-login on Steam Spy too.

Owners of this game also own:

Access restricted.

This feature is only available to users with special access rights. Sorry.

If you want to proceed, you need to register or log in first and then back Steam Spy on Patreon. Look for Indie or Pro pledge.

Don't forget to use the same email as on Steam Spy!

If you've recently backed Steam Spy on Patreon, please note, that it might take around 15 minutes for your access rights to sync. In most cases you'll need to re-login on Steam Spy too.

Playtime distribution:

Access restricted.

This feature is only available to users with special access rights. Sorry.

If you want to proceed, you need to register or log in first and then back Steam Spy on Patreon. Look for Indie or Pro pledge.

Don't forget to use the same email as on Steam Spy!

If you've recently backed Steam Spy on Patreon, please note, that it might take around 15 minutes for your access rights to sync. In most cases you'll need to re-login on Steam Spy too.

Playtime (2 weeks):

Access restricted.

This feature is only available to users with special access rights. Sorry.

If you want to proceed, you need to register or log in first and then back Steam Spy on Patreon. Look for Indie or Pro pledge.

Don't forget to use the same email as on Steam Spy!

If you've recently backed Steam Spy on Patreon, please note, that it might take around 15 minutes for your access rights to sync. In most cases you'll need to re-login on Steam Spy too.

User reviews:

Login required.

Please register or log in to see this information.